createdAt,value
2019-01-19T00:02:06.502Z,79.59
2019-01-19T00:05:10.198Z,79.60
2019-01-19T00:08:17.503Z,79.15
2019-01-19T00:11:23.374Z,79.43
2019-01-19T00:14:01.063Z,78.94
2019-01-19T00:17:22.789Z,78.86
2019-01-19T00:20:19.951Z,79.21
2019-01-19T00:23:29.692Z,78.49
2019-01-19T00:26:35.990Z,78.48
2019-01-19T00:29:30.060Z,78.89
2019-01-19T00:32:10.803Z,79.03
2019-01-19T00:35:23.057Z,78.55
2019-01-19T00:38:06.319Z,79.49
2019-01-19T00:41:24.305Z,79.78
2019-01-19T00:44:26.718Z,79.65
2019-01-19T00:47:13.970Z,79.42
2019-01-19T00:50:07.359Z,79.20
2019-01-19T00:52:46.330Z,79.32
2019-01-19T00:56:00.350Z,80.37
2019-01-19T00:58:43.669Z,79.82
2019-01-19T01:01:46.673Z,78.99
2019-01-19T01:04:38.497Z,80.19
2019-01-19T01:07:39.221Z,79.08
2019-01-19T01:10:47.422Z,79.53
2019-01-19T01:13:59.472Z,78.60
2019-01-19T01:16:56.528Z,79.86
2019-01-19T01:20:07.877Z,79.75
2019-01-19T01:22:53.992Z,79.94
2019-01-19T01:25:52.117Z,81.18
2019-01-19T01:29:09.434Z,80.52
2019-01-19T01:32:14.538Z,81.24
2019-01-19T01:35:07.563Z,81.03
2019-01-19T01:37:48.898Z,80.12
2019-01-19T01:41:08.672Z,80.48
2019-01-19T01:43:57.151Z,80.58
2019-01-19T01:47:00.842Z,80.19
2019-01-19T01:49:56.735Z,80.39
2019-01-19T01:53:23.720Z,79.76
2019-01-19T01:55:58.893Z,80.19
2019-01-19T01:59:02.993Z,80.27
2019-01-19T02:02:05.160Z,80.42
2019-01-19T02:05:15.344Z,80.14
2019-01-19T02:08:24.070Z,80.56
2019-01-19T02:11:31.369Z,80.45
2019-01-19T02:14:39.139Z,80.20
2019-01-19T02:17:59.031Z,80.85
2019-01-19T02:21:04.899Z,80.43
2019-01-19T02:24:02.151Z,80.56
2019-01-19T02:27:05.053Z,80.37
2019-01-19T02:30:26.154Z,79.92
2019-01-19T02:33:35.131Z,79.53
2019-01-19T02:36:30.432Z,80.20
2019-01-19T02:39:38.555Z,80.45
2019-01-19T02:42:32.206Z,80.33
2019-01-19T02:45:48.543Z,80.83
2019-01-19T02:48:43.519Z,80.57
2019-01-19T02:51:42.890Z,80.13
2019-01-19T02:55:18.970Z,79.82
2019-01-19T02:58:37.126Z,80.63
2019-01-19T03:01:53.644Z,80.60
2019-01-19T03:05:01.418Z,80.46
2019-01-19T03:08:04.002Z,80.72
2019-01-19T03:11:05.509Z,80.31
2019-01-19T03:14:20.694Z,80.08
2019-01-19T03:17:22.674Z,80.78
2019-01-19T03:20:19.468Z,80.79
2019-01-19T03:23:19.507Z,80.86
2019-01-19T03:25:59.663Z,80.12
2019-01-19T03:29:02.512Z,79.84
2019-01-19T03:32:16.188Z,80.61
2019-01-19T03:35:43.138Z,80.63
2019-01-19T03:38:55.359Z,80.87
2019-01-19T03:41:39.763Z,80.58
2019-01-19T03:44:39.149Z,79.99
2019-01-19T03:47:47.183Z,80.79
2019-01-19T03:51:01.458Z,80.99
2019-01-19T03:53:55.710Z,80.30
2019-01-19T03:57:02.429Z,80.53
2019-01-19T04:00:10.230Z,80.48
2019-01-19T04:03:21.088Z,80.73
2019-01-19T04:06:21.342Z,81.04
2019-01-19T04:09:32.709Z,80.45
2019-01-19T04:12:39.452Z,80.81
2019-01-19T04:15:38.968Z,80.73
2019-01-19T04:18:55.748Z,80.11
2019-01-19T04:21:45.654Z,80.50
2019-01-19T04:24:26.753Z,80.25
2019-01-19T04:26:58.668Z,79.54
2019-01-19T04:29:29.755Z,80.22
2019-01-19T04:32:00.552Z,79.51
2019-01-19T04:34:32.047Z,79.68
2019-01-19T04:37:02.842Z,79.68
2019-01-19T04:39:33.640Z,79.79
2019-01-19T04:42:05.481Z,79.40
2019-01-19T04:44:36.375Z,79.21
2019-01-19T04:47:07.583Z,78.98
2019-01-19T04:49:38.709Z,79.04
2019-01-19T04:52:09.617Z,79.01
2019-01-19T04:54:40.693Z,78.88
2019-01-19T04:57:11.794Z,78.96
2019-01-19T04:59:42.566Z,79.33
2019-01-19T05:02:13.533Z,79.09
2019-01-19T05:04:44.619Z,78.82
2019-01-19T05:07:15.417Z,79.07
2019-01-19T05:09:46.528Z,78.86
2019-01-19T05:12:17.714Z,78.67
2019-01-19T05:14:48.745Z,78.40
2019-01-19T05:17:19.517Z,78.42
2019-01-19T05:19:50.286Z,78.43
2019-01-19T05:22:21.151Z,78.46
2019-01-19T05:24:52.146Z,78.40
2019-01-19T05:27:23.001Z,78.48
2019-01-19T05:29:53.783Z,78.82
2019-01-19T05:32:25.339Z,78.31
2019-01-19T05:34:56.283Z,78.65
2019-01-19T05:37:27.295Z,78.21
2019-01-19T05:39:58.300Z,78.86
2019-01-19T05:42:29.227Z,78.34
2019-01-19T05:44:59.991Z,78.18
2019-01-19T05:47:31.018Z,78.86
2019-01-19T05:50:02.111Z,78.84
2019-01-19T05:52:32.889Z,78.21
2019-01-19T05:55:04.194Z,78.04
2019-01-19T05:57:35.054Z,78.70
2019-01-19T06:00:12.680Z,78.75
2019-01-19T06:02:43.553Z,78.50
2019-01-19T06:05:14.487Z,78.04
2019-01-19T06:07:46.562Z,77.73
2019-01-19T06:10:17.696Z,77.78
2019-01-19T06:12:48.775Z,78.88
2019-01-19T06:15:20.109Z,78.13
2019-01-19T06:17:51.232Z,78.33
2019-01-19T06:20:22.243Z,78.15
2019-01-19T06:22:53.343Z,78.41
2019-01-19T06:25:24.184Z,78.56
2019-01-19T06:27:55.038Z,78.20
2019-01-19T06:30:25.906Z,78.16
2019-01-19T06:32:56.777Z,78.83
2019-01-19T06:35:27.616Z,78.51
2019-01-19T06:37:58.490Z,78.34
2019-01-19T06:40:29.329Z,78.31
2019-01-19T06:43:00.391Z,78.67
2019-01-19T06:45:31.433Z,79.15
2019-01-19T06:48:02.303Z,79.31
2019-01-19T06:50:33.125Z,79.43
2019-01-19T06:53:04.447Z,79.80
2019-01-19T06:55:36.676Z,79.34
2019-01-19T06:58:07.806Z,79.36
2019-01-19T07:00:39.922Z,79.22
2019-01-19T07:03:10.945Z,79.05
2019-01-19T07:05:41.949Z,78.79
2019-01-19T07:08:12.731Z,78.84
2019-01-19T07:10:43.650Z,78.92
2019-01-19T07:13:14.429Z,79.25
2019-01-19T07:15:45.517Z,78.70
2019-01-19T07:18:16.608Z,78.92
2019-01-19T07:20:47.499Z,79.05
2019-01-19T07:23:19.158Z,79.02
2019-01-19T07:25:50.645Z,79.06
2019-01-19T07:28:21.667Z,79.03
2019-01-19T07:30:52.443Z,79.46
2019-01-19T07:33:23.369Z,79.79
2019-01-19T07:35:54.831Z,79.59
2019-01-19T07:38:26.179Z,79.49
2019-01-19T07:40:57.333Z,79.13
2019-01-19T07:43:28.720Z,78.79
2019-01-19T07:45:59.620Z,79.52
2019-01-19T07:48:30.402Z,78.67
2019-01-19T07:51:02.069Z,78.35
2019-01-19T07:53:33.299Z,78.83
2019-01-19T07:56:04.272Z,78.97
2019-01-19T07:58:35.379Z,79.27
2019-01-19T08:01:06.275Z,78.91
2019-01-19T08:03:37.138Z,78.45
2019-01-19T08:06:08.137Z,79.32
2019-01-19T08:08:39.237Z,79.35
2019-01-19T08:11:11.341Z,79.43
2019-01-19T08:13:42.532Z,79.21
2019-01-19T08:16:13.382Z,78.72
2019-01-19T08:18:44.215Z,78.50
2019-01-19T08:21:15.332Z,78.53
2019-01-19T08:23:46.483Z,78.47
2019-01-19T08:26:17.883Z,77.46
2019-01-19T08:28:48.681Z,77.62
2019-01-19T08:31:19.591Z,76.73
2019-01-19T08:33:50.457Z,77.94
2019-01-19T08:36:21.437Z,77.23
2019-01-19T08:38:52.315Z,77.93
2019-01-19T08:41:23.417Z,77.56
2019-01-19T08:43:56.836Z,77.25
2019-01-19T08:46:27.863Z,76.41
2019-01-19T08:48:58.748Z,76.04
2019-01-19T08:51:29.972Z,75.91
2019-01-19T08:54:01.393Z,75.37
2019-01-19T08:56:32.510Z,74.30
2019-01-19T08:59:03.743Z,74.38
2019-01-19T09:01:34.852Z,73.78
2019-01-19T09:04:05.945Z,72.65
2019-01-19T09:06:37.080Z,72.42
2019-01-19T09:09:08.408Z,72.55
2019-01-19T09:11:39.254Z,72.78
2019-01-19T09:14:10.107Z,71.50
2019-01-19T09:16:41.741Z,71.71
2019-01-19T09:19:12.614Z,70.58
2019-01-19T09:21:43.454Z,70.90
2019-01-19T09:24:23.055Z,71.06
2019-01-19T09:26:54.637Z,70.14
2019-01-19T09:29:25.803Z,69.75
2019-01-19T09:31:56.807Z,70.24
2019-01-19T09:34:27.884Z,69.83
2019-01-19T09:36:58.719Z,70.05
2019-01-19T09:39:30.129Z,68.83
2019-01-19T09:42:01.051Z,68.51
2019-01-19T09:44:31.906Z,68.34
2019-01-19T09:47:03.069Z,67.88
2019-01-19T09:49:33.928Z,66.90
2019-01-19T09:52:05.107Z,67.51
2019-01-19T09:54:36.198Z,67.26
2019-01-19T09:57:07.039Z,67.19
2019-01-19T09:59:38.058Z,67.42
2019-01-19T10:02:09.152Z,65.95
2019-01-19T10:04:40.003Z,64.54
2019-01-19T10:07:11.087Z,65.97
2019-01-19T10:09:42.173Z,65.55
2019-01-19T10:12:13.082Z,65.58
2019-01-19T10:14:43.860Z,66.77
2019-01-19T10:17:14.871Z,65.08
2019-01-19T10:19:45.658Z,64.99
2019-01-19T10:22:16.419Z,64.43
2019-01-19T10:24:47.565Z,65.07
2019-01-19T10:27:18.325Z,65.58
2019-01-19T10:29:49.162Z,64.88
2019-01-19T10:32:20.156Z,65.28
2019-01-19T10:34:51.104Z,65.05
2019-01-19T10:37:22.171Z,64.81
2019-01-19T10:39:53.468Z,64.51
2019-01-19T10:42:24.459Z,64.26
2019-01-19T10:44:55.270Z,64.15
2019-01-19T10:47:26.640Z,64.34
2019-01-19T10:49:57.446Z,64.55
2019-01-19T10:52:28.280Z,63.95
2019-01-19T10:54:59.067Z,64.27
2019-01-19T10:57:30.188Z,63.86
2019-01-19T11:00:01.282Z,64.34
2019-01-19T11:02:32.403Z,63.25
2019-01-19T11:05:03.408Z,63.74
2019-01-19T11:07:34.418Z,63.20
2019-01-19T11:10:06.010Z,63.60
2019-01-19T11:12:37.925Z,63.33
2019-01-19T11:15:10.632Z,63.62
2019-01-19T11:17:41.625Z,63.92
2019-01-19T11:20:17.652Z,63.02
2019-01-19T11:22:49.468Z,63.07
2019-01-19T11:25:20.372Z,62.75
2019-01-19T11:27:51.760Z,64.11
2019-01-19T11:30:27.498Z,61.55
2019-01-19T11:32:58.270Z,61.79
2019-01-19T11:35:29.308Z,61.93
2019-01-19T11:38:00.458Z,61.77
2019-01-19T11:40:33.805Z,62.07
2019-01-19T11:43:05.520Z,60.71
2019-01-19T11:45:36.402Z,60.37
2019-01-19T11:48:07.460Z,60.91
2019-01-19T11:50:39.283Z,58.85
2019-01-19T11:53:10.366Z,58.54
2019-01-19T11:55:41.208Z,57.57
2019-01-19T11:58:11.972Z,57.79
2019-01-19T12:00:42.821Z,57.26
2019-01-19T12:03:13.782Z,57.70
2019-01-19T12:05:44.583Z,57.59
2019-01-19T12:08:19.568Z,56.27
2019-01-19T12:10:47.821Z,55.69
2019-01-19T12:13:18.636Z,54.48
2019-01-19T12:15:49.728Z,53.60
2019-01-19T12:18:20.571Z,52.62
2019-01-19T12:20:52.102Z,52.54
2019-01-19T12:23:23.192Z,49.90
2019-01-19T12:25:54.315Z,48.20
2019-01-19T12:28:25.580Z,49.85
2019-01-19T12:30:56.357Z,49.78
2019-01-19T12:33:27.125Z,48.64
2019-01-19T12:35:58.138Z,47.96
2019-01-19T12:38:29.133Z,49.83
2019-01-19T12:40:59.984Z,47.59
2019-01-19T12:43:31.043Z,47.54
2019-01-19T12:46:04.190Z,46.83
2019-01-19T12:48:35.029Z,46.99
2019-01-19T12:51:08.421Z,48.51
2019-01-19T12:53:39.261Z,47.17
2019-01-19T12:56:10.136Z,47.25
2019-01-19T12:58:41.461Z,46.66
2019-01-19T13:01:12.318Z,46.87
2019-01-19T13:03:43.381Z,45.77
2019-01-19T13:06:51.902Z,47.82
2019-01-19T13:09:26.141Z,46.83
2019-01-19T13:12:35.469Z,46.86
2019-01-19T13:15:57.277Z,47.02
2019-01-19T13:19:07.812Z,47.66
2019-01-19T13:22:20.341Z,47.75
2019-01-19T13:25:41.420Z,48.73
2019-01-19T13:28:52.293Z,47.73
2019-01-19T13:31:58.952Z,50.68
2019-01-19T13:34:52.342Z,49.30
2019-01-19T13:38:02.692Z,49.10
2019-01-19T13:41:26.531Z,49.03
2019-01-19T13:44:42.901Z,50.66
2019-01-19T13:48:02.561Z,50.52
2019-01-19T13:50:55.055Z,51.39
2019-01-19T13:54:14.603Z,50.44
2019-01-19T13:56:55.733Z,50.35
2019-01-19T13:59:43.342Z,50.40
2019-01-19T14:03:07.326Z,50.42
2019-01-19T14:06:03.229Z,50.09
2019-01-19T14:09:05.434Z,51.15
2019-01-19T14:12:27.757Z,49.70
2019-01-19T14:15:37.017Z,49.93
2019-01-19T14:18:41.823Z,51.30
2019-01-19T14:21:41.771Z,51.55
2019-01-19T14:24:33.823Z,51.09
2019-01-19T14:27:41.095Z,53.78
2019-01-19T14:30:55.827Z,52.77
2019-01-19T14:33:44.762Z,52.91
2019-01-19T14:36:51.355Z,53.42
2019-01-19T14:39:42.283Z,54.23
2019-01-19T14:42:31.905Z,54.39
2019-01-19T14:45:41.434Z,58.91
2019-01-19T14:48:54.965Z,54.79
2019-01-19T14:52:05.398Z,55.47
2019-01-19T14:55:02.155Z,55.92
2019-01-19T14:58:15.545Z,55.69
2019-01-19T15:01:02.397Z,59.33
2019-01-19T15:03:44.233Z,56.66
2019-01-19T15:06:45.730Z,57.80
2019-01-19T15:09:57.252Z,56.89
2019-01-19T15:13:01.647Z,58.11
2019-01-19T15:15:50.078Z,58.72
2019-01-19T15:19:01.985Z,58.92
2019-01-19T15:22:07.012Z,60.81
2019-01-19T15:24:56.568Z,60.37
2019-01-19T15:27:57.038Z,60.93
2019-01-19T15:31:18.267Z,59.67
2019-01-19T15:34:25.362Z,60.91
2019-01-19T15:37:28.772Z,62.66
2019-01-19T15:40:27.437Z,63.37
2019-01-19T15:43:12.451Z,66.68
2019-01-19T15:46:19.170Z,68.60
2019-01-19T15:49:29.149Z,68.75
2019-01-19T15:52:32.435Z,70.27
2019-01-19T15:55:42.411Z,71.62
2019-01-19T15:58:50.741Z,72.29
2019-01-19T16:01:57.373Z,72.45
2019-01-19T16:05:15.446Z,71.92
2019-01-19T16:07:59.984Z,72.78
2019-01-19T16:10:57.978Z,73.42
2019-01-19T16:14:00.415Z,73.34
2019-01-19T16:17:19.459Z,73.80
2019-01-19T16:20:23.051Z,73.44
2019-01-19T16:22:59.726Z,73.92
2019-01-19T16:25:53.016Z,74.56
2019-01-19T16:29:11.215Z,75.34
2019-01-19T16:32:24.576Z,74.05
2019-01-19T16:35:23.621Z,73.34
2019-01-19T16:38:45.072Z,74.29
2019-01-19T16:42:05.634Z,75.35
2019-01-19T16:45:00.382Z,75.19
2019-01-19T16:48:21.629Z,74.98
2019-01-19T16:51:07.663Z,75.42
2019-01-19T16:54:08.442Z,76.04
2019-01-19T16:57:20.823Z,76.56
2019-01-19T17:00:41.991Z,77.00
2019-01-19T17:03:32.915Z,77.56
2019-01-19T17:06:50.890Z,78.85
2019-01-19T17:09:33.042Z,78.27
2019-01-19T17:12:16.671Z,78.04
2019-01-19T17:15:03.283Z,77.91
2019-01-19T17:18:36.453Z,78.85
2019-01-19T17:21:44.397Z,78.70
2019-01-19T17:24:29.814Z,77.35
2019-01-19T17:27:35.932Z,78.42
2019-01-19T17:30:46.454Z,78.34
2019-01-19T17:33:45.715Z,78.05
2019-01-19T17:37:00.758Z,77.81
2019-01-19T17:40:08.455Z,77.41
2019-01-19T17:43:25.889Z,79.00
2019-01-19T17:46:16.834Z,79.19
2019-01-19T17:49:20.340Z,80.11
2019-01-19T17:52:23.958Z,79.33
2019-01-19T17:55:23.079Z,79.80
2019-01-19T17:58:39.821Z,80.49
2019-01-19T18:02:06.433Z,81.23
2019-01-19T18:05:20.441Z,82.37
2019-01-19T18:08:05.006Z,83.15
2019-01-19T18:11:00.820Z,83.15
2019-01-19T18:13:48.016Z,83.50
2019-01-19T18:16:48.965Z,83.88
2019-01-19T18:19:43.440Z,84.47
2019-01-19T18:22:54.438Z,85.16
2019-01-19T18:25:55.491Z,85.14
2019-01-19T18:28:59.563Z,85.55
2019-01-19T18:31:51.670Z,85.84
2019-01-19T18:35:04.413Z,86.51
2019-01-19T18:38:09.281Z,86.87
2019-01-19T18:41:10.233Z,87.82
2019-01-19T18:44:02.947Z,87.44
2019-01-19T18:47:01.358Z,87.56
2019-01-19T18:50:08.905Z,87.42
2019-01-19T18:52:54.517Z,88.12
2019-01-19T18:56:02.216Z,88.54
2019-01-19T18:58:58.055Z,87.78
2019-01-19T19:01:43.684Z,87.13
2019-01-19T19:04:34.902Z,86.54
2019-01-19T19:07:29.652Z,86.98
2019-01-19T19:10:45.498Z,87.25
2019-01-19T19:13:53.261Z,87.64
2019-01-19T19:17:03.572Z,87.70
2019-01-19T19:20:33.711Z,87.66
2019-01-19T19:23:40.234Z,87.89
2019-01-19T19:26:52.724Z,88.15
2019-01-19T19:29:53.622Z,88.15
2019-01-19T19:33:01.586Z,88.48
2019-01-19T19:36:08.297Z,89.01
2019-01-19T19:39:14.784Z,89.62
2019-01-19T19:42:12.332Z,90.02
2019-01-19T19:45:19.316Z,89.62
2019-01-19T19:48:43.409Z,89.52
2019-01-19T19:51:41.972Z,89.61
2019-01-19T19:54:13.194Z,89.80
2019-01-19T19:56:42.855Z,90.11
2019-01-19T19:59:13.727Z,90.26
2019-01-19T20:01:44.903Z,90.56
2019-01-19T20:04:15.698Z,90.53
2019-01-19T20:06:47.050Z,90.26
2019-01-19T20:09:18.461Z,90.22
2019-01-19T20:11:49.894Z,90.41
2019-01-19T20:14:20.817Z,90.35
2019-01-19T20:16:52.227Z,90.37
2019-01-19T20:19:23.155Z,90.41
2019-01-19T20:21:54.106Z,90.79
2019-01-19T20:24:25.145Z,89.81
2019-01-19T20:26:56.177Z,89.88
2019-01-19T20:29:27.202Z,89.75
2019-01-19T20:31:58.242Z,89.91
2019-01-19T20:34:29.489Z,89.98
2019-01-19T20:37:00.367Z,89.76
2019-01-19T20:39:31.529Z,89.93
2019-01-19T20:42:02.627Z,90.04
2019-01-19T20:44:34.005Z,90.21
2019-01-19T20:47:05.079Z,90.16
2019-01-19T20:49:35.948Z,90.41
2019-01-19T20:52:07.001Z,90.48
2019-01-19T20:54:38.023Z,89.88
2019-01-19T20:57:09.119Z,89.92
2019-01-19T20:59:40.220Z,90.02
2019-01-19T21:02:11.089Z,90.31
2019-01-19T21:04:42.036Z,90.43
2019-01-19T21:07:13.079Z,91.02
2019-01-19T21:09:44.104Z,91.14
2019-01-19T21:12:15.143Z,91.05
2019-01-19T21:14:46.227Z,91.30
2019-01-19T21:17:17.526Z,91.25
2019-01-19T21:19:48.882Z,90.58
2019-01-19T21:22:20.083Z,90.66
2019-01-19T21:24:51.110Z,91.19
2019-01-19T21:27:21.982Z,90.80
2019-01-19T21:29:52.854Z,91.10
2019-01-19T21:32:23.897Z,91.00
2019-01-19T21:34:54.912Z,90.96
2019-01-19T21:37:25.969Z,90.70
2019-01-19T21:39:56.750Z,90.85
2019-01-19T21:42:27.545Z,90.87
2019-01-19T21:44:58.347Z,90.95
2019-01-19T21:47:29.150Z,90.95
2019-01-19T21:50:00.018Z,91.09
2019-01-19T21:52:31.068Z,90.80
2019-01-19T21:55:01.890Z,91.39
2019-01-19T21:57:33.268Z,90.87
2019-01-19T22:00:06.168Z,90.93
2019-01-19T22:02:37.888Z,91.33
2019-01-19T22:05:08.797Z,91.98
2019-01-19T22:07:39.911Z,91.81
2019-01-19T22:10:13.150Z,90.93
2019-01-19T22:12:44.501Z,90.67
2019-01-19T22:15:16.971Z,90.44
2019-01-19T22:17:47.934Z,89.55
2019-01-19T22:20:18.919Z,89.45
2019-01-19T22:22:50.018Z,89.81
2019-01-19T22:25:20.925Z,89.75
2019-01-19T22:27:51.878Z,90.03
2019-01-19T22:30:24.266Z,90.14
2019-01-19T22:32:56.557Z,90.07
2019-01-19T22:35:29.251Z,89.69
2019-01-19T22:38:00.127Z,89.77
2019-01-19T22:40:31.215Z,89.67
2019-01-19T22:43:05.126Z,89.56
2019-01-19T22:45:36.023Z,89.57
2019-01-19T22:48:07.071Z,89.65
2019-01-19T22:50:38.383Z,89.59
2019-01-19T22:53:09.187Z,89.44
2019-01-19T22:55:40.204Z,89.94
2019-01-19T22:58:11.084Z,89.60
2019-01-19T23:01:09.686Z,89.72
2019-01-19T23:03:40.906Z,89.79
2019-01-19T23:06:11.818Z,89.84
2019-01-19T23:08:42.796Z,89.59
2019-01-19T23:11:13.572Z,89.44
2019-01-19T23:13:44.491Z,89.58
2019-01-19T23:16:15.671Z,89.29
2019-01-19T23:18:46.559Z,89.29
2019-01-19T23:21:17.347Z,89.60
2019-01-19T23:23:48.218Z,89.60
2019-01-19T23:26:19.178Z,89.15
2019-01-19T23:28:50.054Z,89.13
2019-01-19T23:31:21.083Z,89.43
2019-01-19T23:33:52.023Z,88.88
2019-01-19T23:36:23.132Z,89.11
2019-01-19T23:38:54.909Z,88.95
2019-01-19T23:41:25.921Z,89.51
2019-01-19T23:43:56.724Z,89.92
2019-01-19T23:46:27.585Z,89.26
2019-01-19T23:48:58.450Z,88.78
2019-01-19T23:51:29.310Z,89.09
2019-01-19T23:54:00.343Z,89.02
2019-01-19T23:56:31.860Z,88.19
2019-01-19T23:59:03.893Z,87.75
